Address 0x2708e3dffbccbe9afc0f608a7019c2edc86abbf0 1

 
 
Txn Hash Method
Block
From
To
Value [Txn Fee]
0xfb13dd5266705d2050d7b3fd50b84ded8ea1a7c52f6f7a5c5be453fa2853997a0x5866cc8e120153722021-10-23 7:31:341 hr 6 mins ago0x2708e3dffbccbe9afc0f608a7019c2edc86abbf0OUT 0x562939165dc4c8f89a0f3e45c848ab8c064828bf0 BNB0.000364125
0x7918243199aa238874d9eccf31e2eb75c7794cbed16741947e7308754e26f6c90x5866cc8e120133722021-10-23 5:51:082 hrs 46 mins ago0x2708e3dffbccbe9afc0f608a7019c2edc86abbf0OUT 0x562939165dc4c8f89a0f3e45c848ab8c064828bf0 BNB0.000216075
0x21f161808fba0da4510391ba0dea154f8b4176e04ed76544bfff036bd30a4a880x5866cc8e120114662021-10-23 4:14:484 hrs 23 mins ago0x2708e3dffbccbe9afc0f608a7019c2edc86abbf0OUT 0x562939165dc4c8f89a0f3e45c848ab8c064828bf0 BNB0.000217205
0x2ad3889fe524aae309dd29fc524f64c8f3156e1c28067fa7320c83e7a3886cec0x5866cc8e120098962021-10-23 2:53:045 hrs 45 mins ago0x2708e3dffbccbe9afc0f608a7019c2edc86abbf0OUT 0x562939165dc4c8f89a0f3e45c848ab8c064828bf0 BNB0.000364235
0x6bce4d474c05d74b7375f29d5ed5536ee95f690de3686a0a69be66fa55e4f0fe0x5866cc8e120096212021-10-23 2:39:195 hrs 58 mins ago0x2708e3dffbccbe9afc0f608a7019c2edc86abbf0OUT 0x562939165dc4c8f89a0f3e45c848ab8c064828bf0 BNB0.0002215491
0xdcbd0efab783515ee85ac92a051ecd6fa877db1ec8b2c78658addbc7d857353a0x5866cc8e120057982021-10-22 23:26:189 hrs 11 mins ago0x2708e3dffbccbe9afc0f608a7019c2edc86abbf0OUT 0x562939165dc4c8f89a0f3e45c848ab8c064828bf0 BNB0.00331983
0x402a1b2b67ce23390d51a5cb7e8f0b2b2d41a65a03d08ef2b44a9cfb3de33a250x5866cc8e120011482021-10-22 19:30:5313 hrs 7 mins ago0x2708e3dffbccbe9afc0f608a7019c2edc86abbf0OUT 0x562939165dc4c8f89a0f3e45c848ab8c064828bf0 BNB0.000216915
0x55444d8cfa42c7b3d934a90b68446e7af18e112832c4fbcb91b8e66e2d855ca10x5866cc8e120007932021-10-22 19:12:4613 hrs 25 mins ago0x2708e3dffbccbe9afc0f608a7019c2edc86abbf0OUT 0x562939165dc4c8f89a0f3e45c848ab8c064828bf0 BNB0.000216845
0x24513383931a721c77736afa28c91afde0d130a3ddaf741dee92495b800230b90x5866cc8e120002692021-10-22 18:46:3313 hrs 51 mins ago0x2708e3dffbccbe9afc0f608a7019c2edc86abbf0OUT 0x562939165dc4c8f89a0f3e45c848ab8c064828bf0 BNB0.000303933
0xf6f3fe41f7d6837872937fd38b9dbd4b6d71c0e376215fd35fe52b7b5b3d19000x5866cc8e119996282021-10-22 18:14:2314 hrs 23 mins ago0x2708e3dffbccbe9afc0f608a7019c2edc86abbf0OUT 0x562939165dc4c8f89a0f3e45c848ab8c064828bf0 BNB0.000364125
0x76a78e92031c167122ddd29570156138123dce136e37523367b98223b94155d90x5866cc8e119989242021-10-22 17:39:1014 hrs 58 mins ago0x2708e3dffbccbe9afc0f608a7019c2edc86abbf0OUT 0x562939165dc4c8f89a0f3e45c848ab8c064828bf0 BNB0.000216495
0xbbc0ffd49216895a60914cfee1274c748a9812bdc85284de9e281fb209b7f0e20x5866cc8e119985972021-10-22 17:22:4415 hrs 15 mins ago0x2708e3dffbccbe9afc0f608a7019c2edc86abbf0OUT 0x562939165dc4c8f89a0f3e45c848ab8c064828bf0 BNB0.001410815
0x650b49f9bed86933aa2bbbf36ffb793e256544d5f13bac9778c1867e3f1861660x5866cc8e119983182021-10-22 17:08:4615 hrs 29 mins ago0x2708e3dffbccbe9afc0f608a7019c2edc86abbf0OUT 0x562939165dc4c8f89a0f3e45c848ab8c064828bf0 BNB0.0014088
0xff367b9d6d5dd21e81c4f0fd00170343488010df20415f0a6c79238e0cbd6ec70x5866cc8e119978312021-10-22 16:44:2515 hrs 53 mins ago0x2708e3dffbccbe9afc0f608a7019c2edc86abbf0OUT 0x562939165dc4c8f89a0f3e45c848ab8c064828bf0 BNB0.000217025
0x9e08312a9db0db56371311ce84f312a9bda857b375fa8ce46ec9d02d910122b10x5866cc8e119972732021-10-22 16:15:1916 hrs 22 mins ago0x2708e3dffbccbe9afc0f608a7019c2edc86abbf0OUT 0x562939165dc4c8f89a0f3e45c848ab8c064828bf0 BNB0.000274485
0x0e6c264308cdb90600c10758f57100a7ffa68410eec8ea7761d6e32dbc052f830x5866cc8e119963092021-10-22 15:26:5817 hrs 11 mins ago0x2708e3dffbccbe9afc0f608a7019c2edc86abbf0OUT 0x562939165dc4c8f89a0f3e45c848ab8c064828bf0 BNB0.000249965
0xf3c2cd6a80c6c3e0e8f405a0ed8fcad567b547ae5384f512335d51114547652c0x5866cc8e119954042021-10-22 14:41:3817 hrs 56 mins ago0x2708e3dffbccbe9afc0f608a7019c2edc86abbf0OUT 0x562939165dc4c8f89a0f3e45c848ab8c064828bf0 BNB0.000761218397
0x4a7a55351f6ca64a82a882fe4b2ba819fb17992b491c1fd5ce2928968f3443440x5866cc8e119951552021-10-22 14:29:0818 hrs 8 mins ago0x2708e3dffbccbe9afc0f608a7019c2edc86abbf0OUT 0x562939165dc4c8f89a0f3e45c848ab8c064828bf0 BNB0.000436
0x4d04f3c81ddc90a2b4c7851ee873c7fd2c362c6aaa024a5921fe5fef6c2f1fbe0x5866cc8e119938242021-10-22 13:22:2519 hrs 15 mins ago0x2708e3dffbccbe9afc0f608a7019c2edc86abbf0OUT 0x562939165dc4c8f89a0f3e45c848ab8c064828bf0 BNB0.000311485963
0x9439100fbda1684843015b23ae2205008003f5c033ef38aa94d57b91d0c2f3dc0x5866cc8e119907652021-10-22 10:47:4721 hrs 50 mins ago0x2708e3dffbccbe9afc0f608a7019c2edc86abbf0OUT 0x562939165dc4c8f89a0f3e45c848ab8c064828bf0 BNB0.001007169624
0x9472ce861ab800deab3c73554713758281778749a266837c9a59e9860702af190x5866cc8e119885702021-10-22 8:57:4723 hrs 40 mins ago0x2708e3dffbccbe9afc0f608a7019c2edc86abbf0OUT 0x562939165dc4c8f89a0f3e45c848ab8c064828bf0 BNB0.000364235
0x36c1ab3f3eaa8797058041112595e0f3d20eb72e00c70652c6a04a67a02f27ff0x5866cc8e119879022021-10-22 8:22:391 day 15 mins ago0x2708e3dffbccbe9afc0f608a7019c2edc86abbf0OUT 0x562939165dc4c8f89a0f3e45c848ab8c064828bf0 BNB0.000345645
0x8a14187fe2b1df929d5545e481116231ac298aad63b1248095972df9bb5b71850x834f0655119878752021-10-22 8:20:571 day 17 mins ago0x2708e3dffbccbe9afc0f608a7019c2edc86abbf0OUT 0x935ac8974f1ff269921503037b083b679fba29670 BNB0.000455385
0x601938e60de5ad8d823b2676fdcd39c864ae1076bc3f6833fc03a1bc55716d410x5866cc8e119866322021-10-22 7:17:031 day 1 hr ago0x2708e3dffbccbe9afc0f608a7019c2edc86abbf0OUT 0x562939165dc4c8f89a0f3e45c848ab8c064828bf0 BNB0.000282845
0xa3cfaa2a1f298ae6cc0235c21589e01f114071e6a8a529c2a75eb6cb814aa9620x5866cc8e119861982021-10-22 6:54:251 day 1 hr ago0x2708e3dffbccbe9afc0f608a7019c2edc86abbf0OUT 0x562939165dc4c8f89a0f3e45c848ab8c064828bf0 BNB0.001354705
[ Download CSV Export 
Parent Txn Hash Block From To Value
Loading

Contract Name:
0 BNB

Compiler Version
0

Optimization Enabled:
0 BNB

Other Settings:
-NA-
Block Transaction Gas Used Reward
Age Block Fee Address BC Fee Address Voting Power Jailed Incoming
Block Uncle Number Difficulty Gas Used Reward
Loading
Loading
Make sure to use the "Vote Down" button for any spammy posts, and the "Vote Up" for interesting conversations.